Weather observations for the past three days for
Muscatine
Imperial (Metric)
Date Time (cdt) Wind (mph) Vis. (mi.) Weather Sky Cond. Temperature (ºF) Relative Humidity Wind Chill (°F) Heat Index (°F) Pressure Precipitation (in)
Air Dwpt 6 hour altimeter (in) sea level (mb) 1 hr 3 hr 6 hr
Max. Min.
31 11:35 SW 14 10.00 NULL NULL 89.6 68 49% 93 29.92 0.0
31 11:15 SW 13 G 18 10.00 NULL NULL 89.6 68 49% 93 29.92 0.0
31 10:55 SW 16 10.00 NULL NULL 87.8 68 52% 91 29.92 0.0
31 10:35 SW 16 G 23 10.00 NULL NULL 87.8 66.2 49% 90 29.91 0.0
31 10:15 SW 15 10.00 NULL NULL 87.8 66.2 49% 90 29.91 0.0
31 09:55 SW 13 10.00 NULL NULL 86 68 55% 89 29.91 0.0
31 09:35 SW 10 G 17 10.00 NULL NULL 84.2 66.2 55% 87 29.91 0.0
31 09:15 SW 13 G 21 10.00 NULL NULL 82.4 66.2 58% 85 29.9 0.0
31 08:55 SW 14 G 21 10.00 NULL NULL 80.6 66.2 62% 83 29.9 0.0
31 08:35 SW 16 10.00 NULL NULL 80.6 66.2 62% 83 29.89 0.0
31 08:15 SW 15 G 24 10.00 NULL NULL 80.6 66.2 62% 83 29.89 0.0
31 07:55 SW 17 G 23 10.00 NULL NULL 80.6 66.2 62% 83 29.89 0.0
31 07:35 S 14 10.00 NULL NULL 78.8 66.2 65% 81 29.9 0.0
31 07:15 S 12 G 18 10.00 NULL NULL 77 66.2 69% 79 29.9 0.0
31 06:55 S 12 G 20 10.00 NULL NULL 77 66.2 69% 79 29.9 0.0
31 06:35 S 6 10.00 NULL NULL 75.2 68 78% 76 29.9 0.0
31 06:15 SE 6 10.00 NULL NULL 75.2 68 78% 76 29.9 0.0
31 05:55 SE 5 10.00 NULL NULL 75.2 68 78% 76 29.9 0.0
31 05:35 SE 6 10.00 NULL NULL 75.2 68 78% 76 29.9 0.0
31 05:15 SE 6 10.00 NULL NULL 75.2 68 78% 76 29.9 0.0
31 04:55 S 7 10.00 NULL NULL 73.4 68 83% 29.9 0.0
31 04:35 S 6 10.00 NULL NULL 75.2 68 78% 76 29.9 0.0
31 04:15 SE 6 10.00 NULL NULL 73.4 68 83% 29.9 0.0
31 03:55 SE 3 10.00 NULL NULL 73.4 68 83% 29.9 0.0
31 03:35 SE 5 10.00 NULL NULL 73.4 68 83% 29.9 0.0
31 03:15 SE 3 10.00 NULL NULL 73.4 68 83% 29.89 0.0
31 02:55 S 5 10.00 NULL NULL 73.4 68 83% 29.89 0.0
31 02:35 SE 5 10.00 NULL NULL 75.2 68 78% 76 29.89 0.0
31 02:15 SE 3 10.00 NULL NULL 73.4 68 83% 29.9 0.0
31 01:55 SE 5 10.00 NULL NULL 73.4 68 83% 29.9 0.0
31 01:35 Calm 10.00 NULL NULL 73.4 69.8 89% 29.91 0.0
31 01:15 Calm 10.00 NULL NULL 71.6 69.8 94% 29.91 0.0
31 00:55 Calm 10.00 NULL NULL 73.4 69.8 89% 29.91 0.0
31 00:35 Calm 10.00 NULL NULL 73.4 71.6 94% 29.91 0.0
31 00:15 Calm 10.00 NULL NULL 73.4 71.6 94% 29.9 0.0
30 23:55 Calm 10.00 NULL NULL 73.4 71.6 94% 29.91 0.0
30 23:35 S 5 10.00 NULL NULL 75.2 71.6 89% 75 29.91 0.0
30 23:15 S 3 10.00 NULL NULL 77 71.6 83% 78 29.92 0.0
30 22:55 S 7 10.00 NULL NULL 77 73.4 89% 78 29.91 0.0
30 22:35 S 3 10.00 NULL NULL 75.2 73.4 94% 74 29.92 0.0
30 22:15 S 7 10.00 NULL NULL 78.8 73.4 84% 82 29.92 0.0
30 21:55 S 7 G 15 10.00 NULL NULL 78.8 73.4 84% 82 29.92 0.0
30 21:35 SE 8 10.00 NULL NULL 78.8 73.4 84% 82 29.92 0.0
30 21:15 SE 6 10.00 NULL NULL 78.8 73.4 84% 82 29.92 0.0
30 20:55 SE 3 10.00 NULL NULL 78.8 75.2 89% 82 29.92 0.0
30 20:35 SE 5 10.00 NULL NULL 80.6 75.2 84% 86 29.91 0.0
30 20:15 SE 5 10.00 NULL NULL 80.6 75.2 84% 86 29.9 0.0
30 19:55 SE 6 10.00 NULL NULL 80.6 75.2 84% 86 29.9 0.0
30 19:35 SE 8 10.00 NULL NULL 82.4 75.2 79% 89 29.89 0.0
30 19:15 SE 9 10.00 NULL NULL 82.4 77 84% 91 29.9 0.0
30 18:55 SE 7 10.00 NULL NULL 84.2 77 79% 94 29.9 0.0
30 18:35 SE 8 10.00 NULL NULL 84.2 75.2 74% 92 29.91 0.0
30 18:15 SE 7 10.00 NULL NULL 84.2 75.2 74% 92 29.91 0.0
30 17:55 SE 8 10.00 NULL NULL 84.2 75.2 74% 92 29.91 0.0
30 17:35 SE 9 10.00 NULL NULL 84.2 75.2 74% 92 29.9 0.0
30 17:15 SE 9 10.00 NULL NULL 82.4 75.2 79% 89 29.9 0.0
30 16:55 SE 8 10.00 NULL NULL 82.4 75.2 79% 89 29.9 0.0
30 16:35 SE 7 10.00 NULL NULL 82.4 75.2 79% 89 29.91 0.0
30 16:15 SE 7 10.00 NULL NULL 80.6 73.4 79% 85 29.92 0.0
30 15:55 SE 7 10.00 NULL NULL 80.6 73.4 79% 85 29.94 0.0
30 15:35 SE 6 10.00 NULL NULL 80.6 71.6 74% 85 29.94 0.0
30 15:15 SE 6 10.00 NULL NULL 78.8 71.6 79% 82 29.95 0.0
30 14:55 SE 5 10.00 NULL NULL 77 71.6 83% 78 29.96 0.0
30 14:35 SE 5 10.00 NULL NULL 77 71.6 83% 78 29.96 0.0
30 14:15 SE 6 10.00 NULL NULL 77 71.6 83% 78 29.96 0.0
30 13:55 S 5 10.00 NULL NULL 75.2 73.4 94% 74 29.96 0.0 0.01
30 13:35 NE 5 9.00 NULL NULL 75.2 73.4 94% 74 29.96 0.0
30 13:15 SE 5 3.00 Fog/Mist NULL 75.2 71.6 89% 75 29.97 0.0
30 12:55 SW 6 10.00 NULL NULL 78.8 69.8 74% 81 29.98 0.0
30 12:35 S 6 10.00 NULL NULL 80.6 69.8 70% 84 29.97 0.0
30 12:15 S 6 10.00 NULL NULL 80.6 68 66% 83 29.96 0.0
30 11:55 Calm 10.00 NULL NULL 80.6 68 66% 83 29.95 0.0
30 11:35 S 8 10.00 NULL NULL 80.6 68 66% 83 29.95 0.0
30 11:15 S 12 10.00 NULL NULL 78.8 68 70% 81 29.94 0.0
30 10:55 SE 8 10.00 NULL NULL 77 68 74% 79 29.93 0.0
30 10:35 S 7 10.00 NULL NULL 75.2 68 78% 76 29.93 0.0
30 10:15 S 10 G 18 10.00 NULL NULL 73.4 66.2 78% 29.93 0.0
30 09:55 S 12 10.00 NULL NULL 71.6 68 88% 29.93 0.0 0.03
30 09:35 S 10 10.00 NULL NULL 75.2 66.2 74% 77 29.93 0.0
30 09:15 SE 9 G 16 10.00 NULL NULL 73.4 66.2 78% 29.93 0.0
30 08:55 SE 8 10.00 NULL NULL 73.4 66.2 78% 29.92 0.0
30 08:35 SE 7 10.00 NULL NULL 73.4 66.2 78% 29.91 0.0
30 08:15 S 10 8.00 NULL NULL 75.2 64.4 69% 77 29.92 0.0
30 07:55 S 7 10.00 NULL NULL 75.2 62.6 65% 77 29.92 0.0
30 07:35 S 9 G 16 10.00 NULL NULL 75.2 62.6 65% 77 29.92 0.0
30 07:15 S 8 G 14 10.00 NULL NULL 75.2 62.6 65% 77 29.92 0.0
30 06:55 SE 7 10.00 NULL NULL 75.2 62.6 65% 77 29.92 0.0
30 06:35 Vrbl 7 10.00 NULL NULL 73.4 62.6 69% 29.91 0.0
30 05:55 S 6 10.00 NULL NULL 73.4 64.4 74% 29.91 0.0
30 05:35 S 8 10.00 NULL NULL 73.4 64.4 74% 29.91 0.0
30 05:15 S 7 10.00 NULL NULL 73.4 64.4 74% 29.91 0.0
30 04:55 S 6 10.00 NULL NULL 73.4 64.4 74% 29.92 0.0
30 04:35 S 6 10.00 NULL NULL 73.4 64.4 74% 29.92 0.0
30 04:15 SE 8 10.00 NULL NULL 73.4 64.4 74% 29.92 0.0
30 03:55 SE 7 10.00 NULL NULL 73.4 64.4 74% 29.91 0.0
30 03:35 SE 7 10.00 NULL NULL 71.6 64.4 78% 29.91 0.0
30 03:15 S 7 10.00 NULL NULL 71.6 64.4 78% 29.91 0.0
30 02:55 S 8 10.00 NULL NULL 71.6 64.4 78% 29.91 0.0
30 02:35 S 7 10.00 NULL NULL 71.6 64.4 78% 29.91 0.0
30 02:15 S 8 10.00 NULL NULL 71.6 64.4 78% 29.92 0.0
30 01:55 S 9 10.00 NULL NULL 73.4 64.4 74% 29.93 0.0
30 01:35 S 10 10.00 NULL NULL 73.4 64.4 74% 29.93 0.0
30 01:15 S 8 10.00 NULL NULL 73.4 64.4 74% 29.93 0.0
30 00:55 S 8 10.00 NULL NULL 73.4 66.2 78% 29.94 0.0
30 00:35 S 7 10.00 NULL NULL 73.4 66.2 78% 29.94 0.0
30 00:15 S 6 10.00 NULL NULL 71.6 68 88% 29.94 0.0
29 23:55 Calm 10.00 NULL NULL 71.6 68 88% 29.94 0.0
29 23:35 S 6 10.00 NULL NULL 73.4 68 83% 29.94 0.0
29 23:15 SE 7 10.00 NULL NULL 75.2 68 78% 76 29.94 0.0
29 22:55 S 8 10.00 NULL NULL 75.2 68 78% 76 29.94 0.0
29 22:35 S 8 10.00 NULL NULL 75.2 68 78% 76 29.95 0.0
29 22:15 S 8 10.00 NULL NULL 73.4 68 83% 29.94 0.0
29 21:55 S 8 10.00 NULL NULL 75.2 68 78% 76 29.94 0.0
29 21:35 S 8 10.00 NULL NULL 75.2 68 78% 76 29.94 0.0
29 21:15 S 12 10.00 NULL NULL 75.2 69.8 83% 75 29.93 0.0
29 20:55 S 9 10.00 NULL NULL 75.2 69.8 83% 75 29.93 0.0
29 20:35 S 9 10.00 NULL NULL 75.2 69.8 83% 75 29.92 0.0
29 20:15 S 9 10.00 NULL NULL 75.2 69.8 83% 75 29.92 0.0
29 19:55 S 9 10.00 NULL NULL 77 69.8 79% 79 29.92 0.0
29 19:35 S 10 10.00 NULL NULL 77 69.8 79% 79 29.92 0.0
29 19:15 S 10 10.00 NULL NULL 77 69.8 79% 79 29.93 0.0
29 18:55 S 12 G 18 10.00 NULL NULL 78.8 69.8 74% 81 29.92 0.0
29 18:35 S 16 10.00 NULL NULL 80.6 68 66% 83 29.93 0.0
29 18:15 S 15 G 22 10.00 NULL NULL 80.6 69.8 70% 84 29.93 0.0
29 17:55 S 14 G 21 10.00 NULL NULL 80.6 69.8 70% 84 29.94 0.0
29 17:35 S 15 G 21 10.00 NULL NULL 80.6 69.8 70% 84 29.94 0.0
29 17:15 S 16 10.00 NULL NULL 78.8 69.8 74% 81 29.95 0.0
29 16:55 S 10 10.00 NULL NULL 78.8 69.8 74% 81 29.95 0.0
29 16:35 S 13 10.00 NULL NULL 77 69.8 79% 79 29.96 0.0
29 16:15 S 15 10.00 NULL NULL 77 69.8 79% 79 29.97 0.0
29 15:55 S 14 10.00 NULL NULL 77 69.8 79% 79 29.98 0.0
29 15:35 S 16 10.00 NULL NULL 75.2 69.8 83% 75 29.98 0.0
29 15:15 S 15 10.00 NULL NULL 73.4 69.8 89% 29.98 0.0
29 14:55 S 13 10.00 NULL NULL 73.4 69.8 89% 30 0.0
29 14:35 S 8 10.00 NULL NULL 75.2 69.8 83% 75 30.03 0.0
29 14:15 S 13 10.00 NULL NULL 75.2 68 78% 76 30.04 0.0
29 13:55 SE 7 10.00 NULL NULL 77 66.2 69% 79 30.06 0.0
29 13:35 SE 7 10.00 NULL NULL 77 68 74% 79 30.06 0.0
29 13:15 SE 8 10.00 NULL NULL 75.2 68 78% 76 30.07 0.0
29 12:55 SE 5 10.00 NULL NULL 75.2 68 78% 76 30.08 0.0
29 12:35 S 5 10.00 NULL NULL 75.2 68 78% 76 30.09 0.0
29 12:15 S 6 10.00 NULL NULL 73.4 68 83% 30.09 0.0
29 11:55 Vrbl 5 10.00 NULL NULL 73.4 66.2 78% 30.09 0.0
29 11:35 S 7 10.00 NULL NULL 73.4 66.2 78% 30.09 0.0
29 11:15 S 6 10.00 NULL NULL 73.4 66.2 78% 30.1 0.0
29 10:55 SE 7 10.00 NULL NULL 73.4 66.2 78% 30.1 0.0
29 10:35 SE 5 10.00 NULL NULL 73.4 64.4 74% 30.1 0.0
29 10:15 SE 5 10.00 NULL NULL 71.6 64.4 78% 30.1 0.0
29 09:55 S 5 10.00 NULL NULL 71.6 64.4 78% 30.11 0.0
29 09:35 S 5 10.00 NULL NULL 69.8 64.4 83% 30.11 0.0
29 09:15 S 5 10.00 NULL NULL 69.8 66.2 88% 30.11 0.0
29 08:55 S 3 10.00 NULL NULL 68 66.2 94% 30.1 0.0
29 08:35 Calm 10.00 NULL NULL 68 64.4 88% 30.1 0.0
29 08:15 Calm 10.00 NULL NULL 66.2 64.4 94% 30.1 0.0
29 07:55 Calm 10.00 NULL NULL 64.4 64.4 100% 30.11 0.0
29 07:35 Calm 10.00 NULL NULL 62.6 62.6 100% 30.11 0.0
29 07:15 Calm 10.00 NULL NULL 62.6 62.6 100% 30.11 0.0
29 06:55 Calm 9.00 NULL NULL 60.8 60.8 100% 30.1 0.0
29 06:35 Calm 10.00 NULL NULL 60.8 60.8 100% 30.09 0.0
29 06:15 Calm 10.00 NULL NULL 60.8 60.8 100% 30.1 0.0
29 05:55 Calm 10.00 NULL NULL 60.8 60.8 100% 30.09 0.0
29 05:35 Calm 10.00 NULL NULL 60.8 60.8 100% 30.1 0.0
29 05:15 Calm 10.00 NULL NULL 59 59 100% 30.1 0.0
29 04:55 Calm 10.00 NULL NULL 60.8 60.8 100% 30.09 0.0
29 04:35 E 3 4.00 Fog/Mist NULL 60.8 60.8 100% 30.1 0.0
29 04:15 Calm 10.00 NULL NULL 59 59 100% 30.11 0.0
29 03:55 Calm 9.00 NULL NULL 59 59 100% 30.1 0.0
29 03:35 Calm 5.00 Fog/Mist NULL 59 59 100% 30.1 0.0
29 03:15 Calm 1.75 Fog/Mist NULL 60.8 60.8 100% 30.1 0.0
29 02:55 Calm 9.00 NULL NULL 60.8 60.8 100% 30.1 0.0
29 02:35 Calm 9.00 NULL NULL 60.8 60.8 100% 30.09 0.0
29 02:15 Calm 10.00 NULL NULL 60.8 60.8 100% 30.1 0.0
29 01:55 Calm 10.00 NULL NULL 62.6 60.8 94% 30.1 0.0
29 01:35 Calm 10.00 NULL NULL 62.6 60.8 94% 30.1 0.0
29 01:15 Calm 10.00 NULL NULL 62.6 60.8 94% 30.11 0.0
29 00:55 Calm 10.00 NULL NULL 62.6 62.6 100% 30.11 0.0
29 00:35 Calm 10.00 NULL NULL 62.6 62.6 100% 30.11 0.0
29 00:15 Calm 10.00 NULL NULL 62.6 62.6 100% 30.11 0.0
28 23:55 Calm 10.00 NULL NULL 62.6 62.6 100% 30.1 0.0
28 23:35 Calm 10.00 NULL NULL 62.6 62.6 100% 30.11 0.0
28 23:15 Calm 10.00 NULL NULL 64.4 64.4 100% 30.1 0.0
28 22:55 Calm 10.00 NULL NULL 64.4 64.4 100% 30.11 0.0
28 22:35 Calm 10.00 NULL NULL 64.4 64.4 100% 30.1 0.0
28 22:15 Calm 10.00 NULL NULL 66.2 64.4 94% 30.1 0.0
28 21:55 Calm 10.00 NULL NULL 66.2 64.4 94% 30.1 0.0
28 21:35 Calm 10.00 NULL NULL 68 64.4 88% 30.11 0.0
28 21:15 Calm 10.00 NULL NULL 68 66.2 94% 30.1 0.0
28 20:55 Calm 10.00 NULL NULL 68 66.2 94% 30.1 0.0
28 20:35 Calm 10.00 NULL NULL 69.8 66.2 88% 30.09 0.0
28 20:15 NW 3 10.00 NULL NULL 71.6 68 88% 30.09 0.0
28 19:55 Calm 10.00 NULL NULL 71.6 68 88% 30.09 0.0
28 19:35 Calm 10.00 NULL NULL 73.4 68 83% 30.09 0.0
28 19:15 Calm 10.00 NULL NULL 78.8 68 70% 81 30.08 0.0
28 18:55 Calm 10.00 NULL NULL 80.6 60.8 51% 81 30.08 0.0
28 18:35 Calm 10.00 NULL NULL 80.6 59 48% 81 30.09 0.0
28 18:15 SW 6 10.00 NULL NULL 82.4 59 45% 82 30.09 0.0
28 17:55 SW 7 10.00 NULL NULL 84.2 59 43% 84 30.1 0.0
28 17:35 SW 7 10.00 NULL NULL 84.2 57.2 40% 83 30.09 0.0
28 17:15 W 6 10.00 NULL NULL 84.2 59 43% 84 30.1 0.0
28 16:55 W 7 10.00 NULL NULL 84.2 57.2 40% 83 30.1 0.0
28 16:15 SW 6 10.00 NULL NULL 84.2 59 43% 84 30.1 0.0
28 15:55 Calm 10.00 NULL NULL 84.2 59 43% 84 30.11 0.0
28 15:35 Vrbl 6 10.00 NULL NULL 86 59 40% 85 30.11 0.0
28 15:15 Calm 10.00 NULL NULL 84.2 57.2 40% 83 30.11 0.0
28 14:55 Vrbl 6 10.00 NULL NULL 84.2 57.2 40% 83 30.12 0.0
28 14:35 Calm 10.00 NULL NULL 84.2 59 43% 84 30.12 0.0
28 14:15 W 8 10.00 NULL NULL 84.2 60.8 45% 84 30.13 0.0
28 13:55 Vrbl 5 10.00 NULL NULL 82.4 59 45% 82 30.14 0.0
28 13:35 NW 5 10.00 NULL NULL 82.4 60.8 48% 83 30.15 0.0
28 13:15 W 7 10.00 NULL NULL 82.4 62.6 51% 83 30.15 0.0
28 12:55 W 5 10.00 NULL NULL 84.2 60.8 45% 84 30.15 0.0
28 12:35 Calm 10.00 NULL NULL 82.4 60.8 48% 83 30.15 0.0
28 12:15 SW 7 10.00 NULL NULL 82.4 59 45% 82 30.16 0.0
28 11:55 Vrbl 6 10.00 NULL NULL 82.4 62.6 51% 83 30.16 0.0
Date Time (cdt) Wind (mph) Vis. (mi.) Weather Sky Cond. Air Dwpt Max. Min. Relative Humidity Wind Chill (°F) Heat Index (°F) altimeter (in) sea level (mb) 1 hr 3 hr 6 hr
6 hour
Temperature (ºF) Pressure Precipitation (in)